Terminal Aerodrome Forecast
Issued by NWS

Home | Current Version | Previous Version | Text Only | Print | Product List | Glossary On
Versions: 1 2 3 4 5 6 7 8 9 10 11 12 13 14 15 16
000
FTUS45 KABQ 030539
TAFTCC
TAF
KTCC 030539Z 0306/0406 35008KT P6SM VCSH BKN120
     FM031800 22011KT P6SM SCT120
     FM032300 19011KT P6SM VCSH SCT060 BKN100
     FM040400 19010KT P6SM SCT100=

USA.gov is the U.S. government's official web portal to all federal, state and local government web resources and services.